Time;durP1;ratioP1;P1;durP2;ratioP2;P2;SDS_P1;SDS_P2;PMS_P1;PMS_P2;Temp;Humidity;BMP_temperature;BMP_pressure;BME280_temperature;BME280_humidity;BME280_pressure;Samples;Min_cycle;Max_cycle;Signal;HPM_P1;HPM_P2
2023/06/29 00:02:04;;;;;;;2.20;2.00;;;;;;;13.60;90.12;96558.90;112154;1243;24363;-82
2023/06/29 00:04:34;;;;;;;2.30;2.10;;;;;;;13.60;90.14;96557.45;112139;1243;25235;-82
2023/06/29 00:07:03;;;;;;;2.50;2.30;;;;;;;13.60;90.25;96556.33;112146;1243;22526;-82
2023/06/29 00:09:31;;;;;;;5.20;2.70;;;;;;;13.60;90.38;96559.67;112121;1243;39204;-82
2023/06/29 00:12:00;;;;;;;4.40;3.20;;;;;;;13.60;90.58;96558.52;112171;1243;22502;-82
2023/06/29 00:14:28;;;;;;;3.60;3.00;;;;;;;13.60;90.83;96557.77;112142;1243;25263;-82
2023/06/29 00:16:57;;;;;;;3.80;2.90;;;;;;;13.62;90.91;96561.92;112142;1240;22514;-82
2023/06/29 00:19:26;;;;;;;3.90;3.50;;;;;;;13.65;90.98;96559.17;112095;1244;70468;-82
2023/06/29 00:21:57;;;;;;;3.30;3.00;;;;;;;13.66;91.02;96564.20;112165;1244;22533;-82
2023/06/29 00:24:28;;;;;;;4.90;4.40;;;;;;;13.67;91.16;96561.70;112169;1240;22499;-82
2023/06/29 00:26:57;;;;;;;7.50;6.00;;;;;;;13.66;91.25;96565.61;112163;1244;25441;-82
2023/06/29 00:29:25;;;;;;;6.00;5.30;;;;;;;13.66;91.29;96566.83;112123;1243;56730;-82
2023/06/29 00:31:54;;;;;;;7.80;6.00;;;;;;;13.67;91.55;96569.26;112153;1244;22657;-82
2023/06/29 00:34:23;;;;;;;6.60;5.50;;;;;;;13.69;91.66;96570.49;112160;1244;22513;-82
2023/06/29 00:36:52;;;;;;;7.00;6.10;;;;;;;13.72;91.87;96568.04;112158;1244;22505;-82
2023/06/29 00:39:20;;;;;;;8.10;6.70;;;;;;;13.71;91.72;96565.23;112070;1244;106729;-82
2023/06/29 00:41:53;;;;;;;7.60;5.60;;;;;;;13.68;91.83;96559.96;112179;1244;22523;-82
2023/06/29 00:44:23;;;;;;;6.90;6.20;;;;;;;13.65;91.92;96569.02;112221;1244;22512;-81
2023/06/29 00:46:53;;;;;;;7.40;5.70;;;;;;;13.64;92.28;96564.66;112141;1244;24062;-82
2023/06/29 00:49:23;;;;;;;6.90;5.80;;;;;;;13.64;92.49;96566.52;112073;1244;89433;-82
2023/06/29 00:51:53;;;;;;;6.90;6.20;;;;;;;13.67;92.64;96564.68;112142;1244;24359;-81
2023/06/29 00:54:23;;;;;;;6.40;5.20;;;;;;;13.70;92.81;96563.66;112139;1244;22490;-81
2023/06/29 00:56:52;;;;;;;5.50;4.70;;;;;;;13.69;92.78;96562.56;111908;1244;22498;-82
2023/06/29 00:59:21;;;;;;;6.30;5.20;;;;;;;13.66;92.59;96560.83;112098;1244;37868;-82
2023/06/29 01:01:51;;;;;;;5.30;4.80;;;;;;;13.64;92.96;96565.98;112142;1244;22544;-82
2023/06/29 01:04:24;;;;;;;6.20;5.30;;;;;;;13.63;93.03;96565.52;112157;1244;22569;-82
2023/06/29 01:07:02;;;;;;;7.40;5.20;;;;;;;13.62;93.13;96565.55;112133;1244;22609;-82
2023/06/29 01:09:32;;;;;;;6.50;5.80;;;;;;;13.63;93.42;96566.27;112150;1244;44432;-82
2023/06/29 01:12:03;;;;;;;5.90;5.20;;;;;;;13.64;93.43;96558.90;112196;1243;22671;-82
2023/06/29 01:14:33;;;;;;;5.70;5.10;;;;;;;13.64;93.19;96551.20;111890;1244;22503;-81
2023/06/29 01:17:03;;;;;;;6.30;5.70;;;;;;;13.63;93.23;96553.40;112125;1244;22959;-82
2023/06/29 01:19:33;;;;;;;6.70;6.00;;;;;;;13.61;93.32;96550.66;112171;1243;67654;-82
2023/06/29 01:22:05;;;;;;;6.40;5.60;;;;;;;13.62;93.55;96552.20;112137;1244;22559;-82
2023/06/29 01:24:40;;;;;;;6.30;5.40;;;;;;;13.62;93.72;96548.58;112152;1244;22560;-82
2023/06/29 01:27:12;;;;;;;8.60;7.10;;;;;;;13.62;93.97;96548.04;112179;1243;22496;-82
2023/06/29 01:29:43;;;;;;;8.50;7.20;;;;;;;13.63;94.02;96543.75;112256;1243;26937;-82
2023/06/29 01:32:12;;;;;;;7.00;6.10;;;;;;;13.64;94.00;96545.92;112139;1244;22499;-82
2023/06/29 01:34:41;;;;;;;7.60;6.90;;;;;;;13.63;94.01;96545.98;112134;1244;22462;-83
2023/06/29 01:37:15;;;;;;;8.60;7.50;;;;;;;13.62;93.92;96549.36;112136;1244;22601;-83
2023/06/29 01:39:58;;;;;;;9.10;8.10;;;;;;;13.62;93.97;96553.95;112126;1244;40789;-82
2023/06/29 01:42:28;;;;;;;8.40;7.50;;;;;;;13.60;93.88;96552.44;112133;1243;22526;-83
2023/06/29 01:44:58;;;;;;;8.70;7.80;;;;;;;13.60;94.03;96559.58;112118;1243;22528;-83
2023/06/29 01:47:28;;;;;;;8.80;7.70;;;;;;;13.61;94.19;96555.55;112155;1243;22505;-82
2023/06/29 01:49:56;;;;;;;10.10;8.80;;;;;;;13.61;94.04;96548.85;112081;1243;78429;-82
2023/06/29 01:52:26;;;;;;;9.70;8.70;;;;;;;13.59;93.88;96545.54;112154;1243;22464;-82
2023/06/29 01:54:54;;;;;;;9.30;7.80;;;;;;;13.56;93.87;96547.67;112190;1243;22542;-83
2023/06/29 01:57:23;;;;;;;9.80;8.80;;;;;;;13.55;94.00;96547.92;112156;1236;22530;-82
2023/06/29 01:59:51;;;;;;;10.50;9.50;;;;;;;13.55;94.15;96544.47;112124;1243;38414;-83
2023/06/29 02:02:20;;;;;;;10.50;9.10;;;;;;;13.56;94.21;96548.77;112147;1241;22509;-82
2023/06/29 02:04:48;;;;;;;12.20;9.30;;;;;;;13.55;94.11;96546.60;112163;1243;24359;-82
2023/06/29 02:07:17;;;;;;;12.50;9.50;;;;;;;13.54;94.15;96548.31;111919;1243;22562;-82
2023/06/29 02:09:48;;;;;;;10.10;9.10;;;;;;;13.56;94.16;96551.06;112098;1243;69609;-82
2023/06/29 02:12:17;;;;;;;10.60;9.50;;;;;;;13.56;94.15;96554.29;112162;1243;22574;-82
2023/06/29 02:14:48;;;;;;;11.30;9.10;;;;;;;13.55;94.14;96554.27;112146;1243;22696;-82
2023/06/29 02:17:17;;;;;;;9.70;8.70;;;;;;;13.55;94.17;96561.98;112156;1243;22491;-82
2023/06/29 02:19:45;;;;;;;12.00;10.80;;;;;;;13.55;93.98;96563.86;112095;1243;43947;-82
2023/06/29 02:22:14;;;;;;;12.20;10.90;;;;;;;13.51;93.85;96561.90;112152;1243;25242;-82
2023/06/29 02:24:43;;;;;;;10.90;9.60;;;;;;;13.48;93.82;96558.39;112151;1243;22493;-82
2023/06/29 02:27:11;;;;;;;11.90;10.70;;;;;;;13.46;93.68;96557.11;112135;1243;22548;-83
2023/06/29 02:29:40;;;;;;;11.60;10.30;;;;;;;13.42;93.80;96561.20;112114;1243;47719;-83
2023/06/29 02:32:09;;;;;;;11.90;10.70;;;;;;;13.40;93.78;96560.60;112158;1241;22462;-82
2023/06/29 02:34:37;;;;;;;11.00;9.90;;;;;;;13.38;93.91;96557.27;112143;1243;22479;-82
2023/06/29 02:37:06;;;;;;;12.10;10.40;;;;;;;13.38;93.97;96559.45;112146;1243;22542;-83
2023/06/29 02:39:35;;;;;;;12.50;11.30;;;;;;;13.38;93.99;96565.37;112092;1243;71960;-83
2023/06/29 02:42:03;;;;;;;12.00;10.70;;;;;;;13.38;94.17;96563.02;112129;1243;25409;-82
2023/06/29 02:44:32;;;;;;;12.60;9.60;;;;;;;13.39;94.27;96568.50;112192;1243;22475;-82
2023/06/29 02:47:00;;;;;;;10.70;9.60;;;;;;;13.39;94.24;96567.88;111942;1243;22533;-83
2023/06/29 02:49:30;;;;;;;10.30;9.30;;;;;;;13.38;94.19;96574.11;112114;1243;81773;-83
2023/06/29 02:51:58;;;;;;;11.50;10.00;;;;;;;13.37;94.13;96579.76;112196;1243;22519;-83
2023/06/29 02:54:27;;;;;;;11.20;10.00;;;;;;;13.36;94.18;96584.94;112171;1241;25474;-83
2023/06/29 02:56:55;;;;;;;11.50;10.30;;;;;;;13.36;94.33;96591.52;112194;1243;22618;-83
2023/06/29 02:59:24;;;;;;;9.80;8.90;;;;;;;13.36;94.19;96592.59;112126;1243;34804;-83
2023/06/29 03:01:53;;;;;;;10.90;9.80;;;;;;;13.37;94.16;96593.55;112172;1243;22518;-83
2023/06/29 03:04:22;;;;;;;12.40;11.10;;;;;;;13.37;94.23;96594.98;112170;1243;24253;-83
2023/06/29 03:06:50;;;;;;;13.00;10.80;;;;;;;13.38;94.19;96594.09;112153;1243;22525;-83
2023/06/29 03:09:19;;;;;;;10.40;9.40;;;;;;;13.37;94.22;96588.70;112131;1241;35353;-83
2023/06/29 03:11:48;;;;;;;10.00;8.80;;;;;;;13.34;94.15;96590.77;112126;1243;22584;-83
2023/06/29 03:14:17;;;;;;;11.30;10.00;;;;;;;13.29;94.27;96589.23;112141;1243;23235;-83
2023/06/29 03:16:45;;;;;;;11.00;9.30;;;;;;;13.26;94.34;96588.89;112191;1243;24208;-82
2023/06/29 03:19:14;;;;;;;10.10;9.10;;;;;;;13.22;94.39;96591.27;112114;1243;63494;-82
2023/06/29 03:21:43;;;;;;;11.50;10.20;;;;;;;13.21;94.49;96591.79;112165;1243;22514;-82
2023/06/29 03:24:11;;;;;;;11.50;10.40;;;;;;;13.20;94.63;96592.71;111994;1243;23211;-82
2023/06/29 03:26:40;;;;;;;10.90;9.90;;;;;;;13.19;94.80;96595.65;112170;1243;22528;-82
2023/06/29 03:29:08;;;;;;;11.50;10.40;;;;;;;13.19;95.12;96592.02;112101;1244;92171;-82
2023/06/29 03:31:37;;;;;;;11.50;10.40;;;;;;;13.23;95.37;96591.16;112185;1244;22513;-82
2023/06/29 03:34:06;;;;;;;11.80;10.60;;;;;;;13.28;95.51;96594.64;112150;1243;22508;-82
2023/06/29 03:36:34;;;;;;;11.50;10.20;;;;;;;13.31;95.39;96595.95;112156;1244;22491;-83
2023/06/29 03:39:03;;;;;;;11.70;9.80;;;;;;;13.32;95.39;96600.63;112190;1244;41013;-82
2023/06/29 03:41:32;;;;;;;12.90;11.20;;;;;;;13.32;95.39;96600.98;112170;1244;22549;-82
2023/06/29 03:44:02;;;;;;;12.30;11.10;;;;;;;13.33;95.40;96609.54;112149;1238;22499;-82
2023/06/29 03:46:31;;;;;;;12.70;11.40;;;;;;;13.33;95.41;96613.33;112175;1244;24267;-82
2023/06/29 03:49:05;;;;;;;12.50;11.30;;;;;;;13.33;95.45;96617.59;112084;1243;53954;-83
2023/06/29 03:51:34;;;;;;;12.80;11.40;;;;;;;13.33;95.47;96619.46;112197;1244;25311;-82
2023/06/29 03:54:03;;;;;;;13.80;12.40;;;;;;;13.34;95.69;96615.81;112165;1238;22541;-83
2023/06/29 03:56:32;;;;;;;13.90;12.50;;;;;;;13.36;95.71;96615.61;111973;1243;22512;-83
2023/06/29 03:59:01;;;;;;;12.10;10.80;;;;;;;13.39;96.01;96617.77;112146;1243;40528;-83
2023/06/29 04:01:29;;;;;;;12.70;11.50;;;;;;;13.44;96.19;96613.24;112162;1244;23320;-83
2023/06/29 04:03:58;;;;;;;13.40;12.10;;;;;;;13.48;96.32;96611.12;112171;1244;22557;-82
2023/06/29 04:06:27;;;;;;;12.60;11.30;;;;;;;13.54;96.40;96608.32;111958;1243;22509;-82
2023/06/29 04:08:56;;;;;;;13.20;11.90;;;;;;;13.59;96.55;96612.66;112163;1241;57170;-82
2023/06/29 04:11:24;;;;;;;14.50;12.20;;;;;;;13.64;96.63;96609.15;112165;1244;22716;-83
2023/06/29 04:13:53;;;;;;;13.60;12.20;;;;;;;13.69;96.64;96608.91;112169;1244;22505;-82
2023/06/29 04:16:21;;;;;;;13.30;12.00;;;;;;;13.72;96.54;96613.15;112141;1244;22817;-83
2023/06/29 04:18:50;;;;;;;11.90;10.80;;;;;;;13.75;96.39;96617.20;112141;1244;39406;-82
2023/06/29 04:21:19;;;;;;;12.90;11.30;;;;;;;13.76;96.38;96624.52;112186;1244;22551;-82
2023/06/29 04:23:47;;;;;;;13.50;12.10;;;;;;;13.76;96.41;96625.34;112191;1241;24410;-83
2023/06/29 04:26:16;;;;;;;14.30;11.90;;;;;;;13.75;96.43;96625.84;112139;1244;22517;-83
2023/06/29 04:28:46;;;;;;;12.90;11.60;;;;;;;13.75;96.44;96628.97;112153;1244;41012;-83
2023/06/29 04:31:14;;;;;;;14.80;12.60;;;;;;;13.77;96.51;96633.94;112194;1243;24204;-83
2023/06/29 04:33:43;;;;;;;13.50;12.20;;;;;;;13.79;96.62;96631.98;112192;1244;22518;-82
2023/06/29 04:36:13;;;;;;;14.80;13.20;;;;;;;13.79;96.54;96628.89;112206;1244;26416;-82
2023/06/29 04:38:43;;;;;;;14.10;12.60;;;;;;;13.79;96.50;96629.04;112134;1244;49872;-83
2023/06/29 04:41:12;;;;;;;14.40;12.90;;;;;;;13.81;96.78;96626.48;112192;1244;23234;-83
2023/06/29 04:43:49;;;;;;;14.10;12.40;;;;;;;13.85;96.94;96627.14;112186;1244;25449;-82
2023/06/29 04:46:19;;;;;;;14.00;12.30;;;;;;;13.87;96.95;96628.31;112178;1244;24300;-83
2023/06/29 04:48:47;;;;;;;13.00;11.70;;;;;;;13.88;96.83;96633.13;112124;1243;46689;-83
2023/06/29 04:51:18;;;;;;;13.30;11.70;;;;;;;13.90;96.90;96638.14;112153;1244;22541;-82
2023/06/29 04:53:47;;;;;;;12.20;10.90;;;;;;;13.90;96.82;96637.52;112192;1244;22548;-82
2023/06/29 04:56:18;;;;;;;13.60;12.30;;;;;;;13.91;96.97;96631.26;112195;1244;23409;-82
2023/06/29 04:58:47;;;;;;;13.70;12.40;;;;;;;13.90;96.83;96629.41;112115;1244;51428;-83
2023/06/29 05:01:16;;;;;;;12.50;10.10;;;;;;;13.92;96.97;96627.01;112176;1244;22537;-82
2023/06/29 05:03:45;;;;;;;11.60;10.40;;;;;;;13.93;96.93;96632.33;112160;1244;22546;-82
2023/06/29 05:06:17;;;;;;;12.70;11.50;;;;;;;13.95;96.94;96636.50;112136;1244;22508;-83
2023/06/29 05:08:45;;;;;;;12.70;11.20;;;;;;;14.00;97.12;96640.73;112096;1243;54187;-83
2023/06/29 05:11:14;;;;;;;13.00;11.00;;;;;;;14.04;97.27;96649.27;112145;1244;22502;-83
2023/06/29 05:13:43;;;;;;;11.90;10.70;;;;;;;14.06;97.03;96650.66;112178;1244;22525;-83
2023/06/29 05:16:12;;;;;;;12.10;10.80;;;;;;;14.07;96.84;96650.42;112156;1241;22508;-82
2023/06/29 05:18:41;;;;;;;13.30;11.80;;;;;;;14.09;96.89;96656.05;112136;1240;32783;-83
2023/06/29 05:21:10;;;;;;;12.10;10.80;;;;;;;14.13;96.89;96660.50;112147;1243;22528;-83
2023/06/29 05:23:39;;;;;;;12.90;11.50;;;;;;;14.14;96.80;96659.66;112146;1243;24377;-83
2023/06/29 05:26:09;;;;;;;11.80;10.50;;;;;;;14.16;96.83;96658.83;112165;1243;22505;-82
2023/06/29 05:28:39;;;;;;;13.30;12.00;;;;;;;14.19;96.71;96655.77;112111;1243;57453;-83
2023/06/29 05:31:10;;;;;;;13.20;11.80;;;;;;;14.19;96.61;96656.18;111956;1243;22502;-83
2023/06/29 05:33:38;;;;;;;12.60;11.30;;;;;;;14.19;96.32;96655.65;112154;1243;23282;-82
2023/06/29 05:36:07;;;;;;;12.60;11.20;;;;;;;14.19;96.26;96652.89;112174;1243;22950;-82
2023/06/29 05:38:37;;;;;;;13.40;12.00;;;;;;;14.19;96.21;96653.26;112121;1243;46509;-82
2023/06/29 05:41:05;;;;;;;13.40;12.10;;;;;;;14.21;96.35;96650.33;112186;1243;24236;-83
2023/06/29 05:43:35;;;;;;;13.60;12.30;;;;;;;14.32;97.23;96651.61;112162;1243;22521;-83
2023/06/29 05:46:04;;;;;;;13.60;12.20;;;;;;;14.68;98.17;96650.63;112174;1243;22536;-82
2023/06/29 05:48:33;;;;;;;11.60;10.40;;;;;;;14.92;96.97;96653.71;112140;1243;40923;-82
2023/06/29 05:51:02;;;;;;;12.20;11.00;;;;;;;14.91;96.09;96656.55;112150;1243;25306;-83
2023/06/29 05:53:31;;;;;;;12.70;11.40;;;;;;;14.87;95.89;96655.15;112191;1243;25048;-82
2023/06/29 05:56:00;;;;;;;12.50;10.70;;;;;;;14.84;95.99;96657.40;112153;1241;22502;-83
2023/06/29 05:58:29;;;;;;;13.80;11.20;;;;;;;14.81;95.75;96661.60;112101;1243;53420;-83
2023/06/29 06:00:58;;;;;;;13.20;11.70;;;;;;;14.77;95.65;96663.45;112172;1243;24013;-82
2023/06/29 06:03:29;;;;;;;12.30;11.00;;;;;;;14.73;95.53;96660.23;112171;1243;22706;-83
2023/06/29 06:05:58;;;;;;;14.00;10.70;;;;;;;14.69;95.43;96666.85;112146;1243;22512;-82
2023/06/29 06:08:27;;;;;;;12.30;11.00;;;;;;;14.69;95.54;96663.55;112072;1243;61894;-83
2023/06/29 06:10:57;;;;;;;12.80;10.50;;;;;;;14.69;95.53;96667.44;112169;1243;22508;-82
2023/06/29 06:13:26;;;;;;;14.30;11.40;;;;;;;14.67;95.32;96668.88;112167;1243;22496;-82
2023/06/29 06:15:55;;;;;;;12.10;10.50;;;;;;;14.65;95.41;96668.48;112134;1243;22514;-82
2023/06/29 06:18:24;;;;;;;11.60;10.20;;;;;;;14.66;95.39;96672.92;112121;1243;53808;-82
2023/06/29 06:20:53;;;;;;;11.20;9.90;;;;;;;14.65;95.34;96675.92;112111;1243;22547;-83
2023/06/29 06:23:22;;;;;;;12.30;11.00;;;;;;;14.65;95.37;96677.25;112152;1243;25180;-82
2023/06/29 06:25:52;;;;;;;12.90;11.60;;;;;;;14.66;95.37;96681.55;112138;1243;22958;-82
2023/06/29 06:28:21;;;;;;;11.90;9.70;;;;;;;14.65;95.25;96681.80;112115;1243;55097;-82
2023/06/29 06:30:50;;;;;;;14.70;10.80;;;;;;;14.64;95.29;96683.45;111968;1243;22587;-82
2023/06/29 06:33:19;;;;;;;13.40;11.30;;;;;;;14.64;95.39;96683.94;112151;1243;24202;-82
2023/06/29 06:35:49;;;;;;;13.40;11.80;;;;;;;14.64;95.41;96687.19;112184;1243;22505;-82
2023/06/29 06:38:17;;;;;;;12.80;11.30;;;;;;;14.65;95.42;96686.27;112122;1243;70149;-82
2023/06/29 06:40:47;;;;;;;11.60;10.40;;;;;;;14.67;95.52;96688.30;112173;1243;23784;-82
2023/06/29 06:43:17;;;;;;;13.90;12.30;;;;;;;14.69;95.53;96687.03;112160;1243;22502;-82
2023/06/29 06:45:47;;;;;;;12.40;10.40;;;;;;;14.73;95.61;96685.01;112153;1243;22548;-82
2023/06/29 06:48:16;;;;;;;11.50;10.30;;;;;;;14.79;95.69;96683.05;112072;1243;73352;-83
2023/06/29 06:50:45;;;;;;;14.00;11.10;;;;;;;14.96;96.02;96679.24;112159;1243;22534;-82
2023/06/29 06:53:14;;;;;;;12.30;10.00;;;;;;;15.11;95.59;96677.05;111967;1243;22502;-82
2023/06/29 06:55:46;;;;;;;12.50;10.10;;;;;;;15.22;95.25;96677.14;112163;1243;22478;-82
2023/06/29 06:58:14;;;;;;;10.60;9.50;;;;;;;15.34;95.06;96676.14;112118;1243;40590;-82
2023/06/29 07:00:43;;;;;;;12.40;9.90;;;;;;;15.51;95.00;96672.16;112153;1243;22604;-82
2023/06/29 07:03:12;;;;;;;12.10;9.60;;;;;;;15.72;94.65;96670.05;112148;1243;22584;-82
2023/06/29 07:05:41;;;;;;;10.60;8.70;;;;;;;16.04;95.18;96671.73;111969;1243;22544;-82
2023/06/29 07:08:10;;;;;;;10.10;9.00;;;;;;;16.60;94.62;96664.70;112089;1243;67720;-82
2023/06/29 07:10:38;;;;;;;10.20;9.00;;;;;;;16.56;92.38;96664.75;112137;1243;25046;-82
2023/06/29 07:13:08;;;;;;;9.90;8.70;;;;;;;16.49;91.72;96664.38;112173;1243;25395;-82
2023/06/29 07:15:36;;;;;;;12.20;9.50;;;;;;;16.55;92.03;96658.84;112161;1240;22591;-83
2023/06/29 07:18:06;;;;;;;13.00;9.30;;;;;;;17.02;91.76;96663.52;112112;1243;48360;-83
2023/06/29 07:20:35;;;;;;;11.70;9.20;;;;;;;17.64;91.76;96656.96;112147;1243;22546;-82
2023/06/29 07:23:05;;;;;;;12.00;9.00;;;;;;;17.99;89.71;96658.05;112142;1241;22498;-83
2023/06/29 07:25:34;;;;;;;9.70;8.60;;;;;;;18.26;89.29;96664.61;112154;1243;22499;-83
2023/06/29 07:28:05;;;;;;;11.70;9.50;;;;;;;18.42;88.00;96669.59;112134;1243;23669;-82
2023/06/29 07:30:33;;;;;;;10.20;9.20;;;;;;;18.46;86.73;96668.96;112163;1243;22516;-83
2023/06/29 07:33:04;;;;;;;9.80;8.80;;;;;;;18.70;87.02;96661.33;112128;1243;22557;-83
2023/06/29 07:35:34;;;;;;;10.60;8.50;;;;;;;19.07;86.38;96663.88;111948;1243;22525;-83
2023/06/29 07:38:06;;;;;;;9.90;8.00;;;;;;;19.36;85.14;96664.41;112158;1243;22600;-83
2023/06/29 07:40:33;;;;;;;;;;;;;;;19.60;83.76;96665.21;112127;1243;22489;-83
2023/06/29 07:43:03;;;;;;;8.40;7.10;;;;;;;19.69;83.39;96668.83;112137;1243;22513;-83
2023/06/29 07:45:33;;;;;;;;;;;;;;;19.84;82.04;96670.00;112148;1243;22527;-83
2023/06/29 07:48:06;;;;;;;8.70;7.40;;;;;;;19.28;80.40;96676.44;112155;1243;22580;-83
2023/06/29 07:50:33;;;;;;;;;;;;;;;18.72;80.26;96676.20;112019;1241;22486;-83
2023/06/29 07:53:02;;;;;;;7.70;6.60;;;;;;;18.17;80.04;96676.66;111923;1244;22505;-83
2023/06/29 07:55:31;;;;;;;9.80;6.80;;;;;;;17.73;80.14;96679.23;111817;1232;22513;-83
2023/06/29 07:58:00;;;;;;;10.10;7.00;;;;;;;17.39;80.07;96682.88;111986;1244;22531;-83
2023/06/29 08:00:34;;;;;;;10.20;7.40;;;;;;;17.31;80.53;96681.92;111967;1244;41706;-83
2023/06/29 08:03:04;;;;;;;6.90;6.20;;;;;;;17.55;80.81;96682.77;112003;1244;22520;-83
2023/06/29 08:05:33;;;;;;;9.60;7.80;;;;;;;17.59;79.88;96681.55;112003;1244;22516;-83
2023/06/29 08:08:02;;;;;;;8.30;6.70;;;;;;;17.51;79.85;96684.30;112006;1244;22524;-83
2023/06/29 08:10:31;;;;;;;8.50;7.70;;;;;;;17.47;80.09;96684.92;112114;1243;41644;-83
2023/06/29 08:13:01;;;;;;;9.20;8.00;;;;;;;17.41;80.22;96683.12;112140;1243;22923;-83
2023/06/29 08:15:28;;;;;;;;;;;;;;;17.33;80.06;96684.77;112123;1243;22519;-82
2023/06/29 08:17:57;;;;;;;7.90;7.10;;;;;;;17.26;80.09;96687.92;112152;1243;24470;-83
2023/06/29 08:20:25;;;;;;;9.30;8.10;;;;;;;17.23;79.98;96683.80;111847;1244;171054;-83
2023/06/29 08:22:55;;;;;;;9.70;8.50;;;;;;;17.15;80.20;96684.66;112032;1238;22509;-83
2023/06/29 08:25:24;;;;;;;9.70;7.40;;;;;;;17.18;80.70;96683.37;112010;1244;23781;-83
2023/06/29 08:27:53;;;;;;;8.10;7.30;;;;;;;17.56;81.51;96682.13;112052;1244;24322;-83
2023/06/29 08:30:26;;;;;;;9.60;7.70;;;;;;;18.06;81.22;96682.09;112098;1243;23948;-83
2023/06/29 08:32:55;;;;;;;10.20;6.90;;;;;;;18.44;81.02;96683.09;112117;1243;22535;-83
2023/06/29 08:35:24;;;;;;;8.10;7.30;;;;;;;18.77;80.59;96678.94;112144;1243;22546;-83
2023/06/29 08:37:52;;;;;;;9.80;7.80;;;;;;;19.14;80.18;96685.63;112150;1243;22561;-83
2023/06/29 08:40:22;;;;;;;8.30;7.40;;;;;;;19.39;79.11;96692.16;112001;1244;24887;-83
2023/06/29 08:42:52;;;;;;;9.20;7.90;;;;;;;19.11;77.26;96687.33;112032;1244;22565;-83
2023/06/29 08:45:23;;;;;;;9.20;7.50;;;;;;;18.81;77.05;96688.59;112035;1244;22564;-83
2023/06/29 08:47:54;;;;;;;8.70;7.90;;;;;;;18.64;76.85;96691.20;112038;1244;22507;-83
2023/06/29 08:50:28;;;;;;;9.60;8.40;;;;;;;18.67;77.78;96684.33;112082;1243;60671;-83
2023/06/29 08:52:58;;;;;;;9.00;8.10;;;;;;;18.82;78.12;96684.81;112216;1243;22572;-83
2023/06/29 08:55:26;;;;;;;;;;;;;;;18.80;77.05;96684.70;112173;1243;22479;-83
2023/06/29 08:57:55;;;;;;;8.90;8.00;;;;;;;18.64;76.77;96687.66;112144;1243;25442;-83
2023/06/29 09:00:24;;;;;;;9.20;7.80;;;;;;;18.53;77.27;96687.79;112055;1243;101788;-83
2023/06/29 09:02:53;;;;;;;;;;;;;;;18.40;77.04;96689.84;112170;1232;26155;-84
2023/06/29 09:05:22;;;;;;;10.90;8.60;;;;;;;18.39;77.90;96690.54;112086;1243;22516;-83
2023/06/29 09:07:51;;;;;;;11.20;8.50;;;;;;;18.47;77.95;96691.00;112146;1243;25229;-83
2023/06/29 09:10:21;;;;;;;8.70;7.80;;;;;;;18.60;78.50;96689.71;112003;1244;22576;-84
2023/06/29 09:12:54;;;;;;;8.70;7.70;;;;;;;18.88;78.78;96690.29;112039;1244;22495;-84
2023/06/29 09:15:25;;;;;;;8.90;7.10;;;;;;;19.03;77.93;96686.31;112005;1244;23391;-83
2023/06/29 09:17:56;;;;;;;7.70;6.90;;;;;;;19.05;77.17;96683.98;112009;1244;22545;-83
2023/06/29 09:20:34;;;;;;;8.80;7.70;;;;;;;18.94;76.47;96689.70;112151;1243;23722;-83
2023/06/29 09:23:05;;;;;;;8.10;7.00;;;;;;;18.89;76.19;96685.98;112153;1243;24214;-83
2023/06/29 09:25:38;;;;;;;8.60;7.70;;;;;;;18.78;75.59;96685.42;112147;1243;25239;-84
2023/06/29 09:28:08;;;;;;;8.30;7.40;;;;;;;18.72;75.51;96685.38;112174;1243;22498;-83
2023/06/29 09:30:39;;;;;;;9.30;7.00;;;;;;;18.77;75.28;96683.39;112162;1232;25245;-83
2023/06/29 09:33:10;;;;;;;9.10;8.20;;;;;;;18.79;75.20;96682.48;112140;1243;22523;-83
2023/06/29 09:35:40;;;;;;;9.90;8.10;;;;;;;18.86;75.47;96679.83;112162;1243;22571;-84
2023/06/29 09:38:09;;;;;;;11.60;8.80;;;;;;;18.93;75.44;96681.44;112066;1243;99907;-84
2023/06/29 09:40:49;;;;;;;9.50;8.50;;;;;;;19.17;75.80;96682.51;112050;1244;22521;-84
2023/06/29 09:43:19;;;;;;;10.00;8.60;;;;;;;19.24;74.96;96682.67;112035;1244;22527;-84
2023/06/29 09:45:48;;;;;;;8.90;7.90;;;;;;;19.37;74.87;96681.32;112037;1244;22540;-84
2023/06/29 09:48:21;;;;;;;8.80;7.90;;;;;;;19.37;73.91;96681.79;112042;1243;22498;-83
2023/06/29 09:50:52;;;;;;;9.00;8.10;;;;;;;19.19;73.25;96681.18;112117;1243;22517;-83
2023/06/29 09:53:29;;;;;;;10.20;8.30;;;;;;;19.01;73.17;96680.86;112145;1240;22540;-83
2023/06/29 09:56:00;;;;;;;8.30;7.40;;;;;;;18.85;73.42;96683.42;112111;1243;22540;-83
2023/06/29 09:58:31;;;;;;;9.10;8.20;;;;;;;18.92;74.02;96684.70;112104;1243;22530;-83
2023/06/29 10:01:01;;;;;;;9.20;8.00;;;;;;;18.97;73.64;96685.48;112134;1243;22544;-83
2023/06/29 10:03:31;;;;;;;8.90;7.70;;;;;;;18.94;73.33;96682.08;112133;1237;22576;-83
2023/06/29 10:06:07;;;;;;;9.50;7.90;;;;;;;19.00;73.57;96682.38;112160;1243;22547;-84
2023/06/29 10:08:38;;;;;;;10.00;8.50;;;;;;;19.22;74.30;96678.90;112125;1243;24699;-83
2023/06/29 10:11:09;;;;;;;9.30;8.40;;;;;;;19.45;75.14;96677.71;112157;1243;22534;-83
2023/06/29 10:13:42;;;;;;;10.60;8.20;;;;;;;19.64;75.13;96673.89;112124;1240;22502;-84
2023/06/29 10:16:12;;;;;;;10.60;8.30;;;;;;;19.68;74.14;96673.09;112136;1243;22510;-83
2023/06/29 10:18:45;;;;;;;10.50;8.70;;;;;;;19.57;73.22;96675.33;112089;1243;24033;-83
2023/06/29 10:21:14;;;;;;;9.40;8.30;;;;;;;19.43;72.64;96674.10;112143;1237;22556;-83
2023/06/29 10:23:44;;;;;;;9.50;8.50;;;;;;;19.39;73.15;96674.17;112108;1243;25368;-83
2023/06/29 10:26:15;;;;;;;8.70;7.90;;;;;;;19.54;73.76;96672.85;112126;1243;22615;-84
2023/06/29 10:28:46;;;;;;;8.60;7.60;;;;;;;19.72;73.05;96673.36;112110;1240;60786;-84
2023/06/29 10:31:19;;;;;;;9.40;7.90;;;;;;;19.70;71.95;96676.77;112148;1243;22611;-84
2023/06/29 10:33:49;;;;;;;9.70;8.80;;;;;;;19.65;72.03;96676.84;112120;1243;22508;-84
2023/06/29 10:36:18;;;;;;;9.30;8.30;;;;;;;19.72;71.83;96678.86;112141;1243;22501;-83
2023/06/29 10:38:47;;;;;;;9.60;8.60;;;;;;;19.71;71.51;96674.44;112086;1243;83832;-83
2023/06/29 10:41:27;;;;;;;;;;;;;;;19.62;71.30;96672.50;112184;1243;24255;-83
2023/06/29 10:44:00;;;;;;;9.20;8.30;;;;;;;19.50;71.13;96671.40;112169;1243;22568;-83
2023/06/29 10:46:48;;;;;;;9.40;8.40;;;;;;;19.41;71.40;96665.95;112123;1243;22522;-83
2023/06/29 10:49:24;;;;;;;8.70;7.80;;;;;;;19.55;72.06;96664.14;112119;1243;40602;-83
2023/06/29 10:51:54;;;;;;;8.70;7.80;;;;;;;19.77;72.39;96663.09;112169;1243;22501;-83
2023/06/29 10:54:24;;;;;;;8.90;8.00;;;;;;;19.94;72.30;96659.23;112164;1243;22612;-83
2023/06/29 10:57:01;;;;;;;10.30;8.20;;;;;;;20.12;72.09;96659.02;112168;1243;22525;-83
2023/06/29 10:59:34;;;;;;;8.90;7.90;;;;;;;20.27;72.26;96663.24;112142;1243;22588;-83
2023/06/29 11:02:06;;;;;;;10.60;8.10;;;;;;;20.36;71.43;96663.36;112138;1243;23581;-83
2023/06/29 11:04:35;;;;;;;8.80;7.90;;;;;;;20.51;72.08;96662.27;112125;1243;22516;-83
2023/06/29 11:07:08;;;;;;;10.90;8.50;;;;;;;20.63;71.41;96659.86;112141;1243;22502;-83
2023/06/29 11:09:37;;;;;;;10.00;9.00;;;;;;;20.65;70.91;96659.70;112088;1243;23364;-84
2023/06/29 11:12:09;;;;;;;8.20;7.40;;;;;;;20.59;70.13;96660.84;112164;1241;22501;-83
2023/06/29 11:14:44;;;;;;;8.30;7.50;;;;;;;20.58;70.34;96663.42;112152;1243;24181;-83
2023/06/29 11:17:14;;;;;;;8.70;7.60;;;;;;;20.61;70.32;96660.20;112143;1243;22521;-83
2023/06/29 11:19:45;;;;;;;7.60;6.80;;;;;;;20.59;69.26;96654.61;112063;1244;22506;-83
2023/06/29 11:22:14;;;;;;;8.40;7.40;;;;;;;20.59;68.86;96652.45;112088;1244;22521;-83
2023/06/29 11:24:46;;;;;;;8.60;6.90;;;;;;;20.59;68.50;96647.73;112061;1244;24206;-83
2023/06/29 11:27:18;;;;;;;7.90;7.10;;;;;;;20.59;68.25;96642.44;111823;1244;22528;-83
2023/06/29 11:29:54;;;;;;;8.30;7.10;;;;;;;20.62;68.41;96641.21;112121;1243;25345;-83
2023/06/29 11:32:25;;;;;;;8.40;7.30;;;;;;;20.73;68.70;96643.23;112140;1240;22554;-84